Gulfport Biloxi International Airport
KGPT : rendu visible

Aérodrome :











RETROUVEZ-NOUS SUR...

 
LOGIN :

S'inscrire | Disclaimer

   EN    FR    IT 

 









Légende :    VFR   VFR Marginal   IFR   IFR Intensif   IFR Très Intensif
Visi : 
Plafond : 
>= 8 km
>= 3000ft
5 à 8 km
1000 à 3000 ft
1500m à 5 km
500 à 1000 ft
800 à 1500m
200 à 500 ft
< 800m
< 200 ft
Symboles :   Orages  Brouillard  Fortes neiges  Fortes précipitations  Vent > 20 kt






- Altitude de l'aérodrome : 28 ft
- Code IATA : GPT


KGPT - Gulfport Biloxi International

DERNIER METAR :
  • 232253Z 12007KT 10SM BKN010 OVC019 14/13 A2993 RMK AO2 RAB02E12 CIG 007V015 SLP133 P0000 T01440128

METARs EXPIRÉS :
  • 232243Z 11008KT 10SM BKN010 BKN017 OVC110 14/13 A2992 RMK AO2 RAB02E12 CIG 007V014 P0000 T01440128
  • 232232Z 11008KT 10SM SCT010 BKN017 OVC110 14/13 A2992 RMK AO2 RAB02E12 P0000 T01440128
  • 232153Z 11012KT 10SM FEW011 BKN070 OVC110 14/12 A2990 RMK AO2 RAE48 SLP125 P0001 T01390122
  • 232053Z 12013KT 9SM -RA BKN060 OVC080 14/12 A2994 RMK AO2 RAB38 SLP136 P0000 60001 T01440122 56028
  • 231953Z 11019G25KT 10SM SCT085 OVC110 14/12 A2994 RMK AO2 PK WND 11026/1938 RAE09 SLP138 P0000 T01440117

TAF KGPT
Valide du 23 à 23h jusqu'au 24 à 18h UTC


232242Z 2323/2418 18006KT P6SM BKN010
FM240600 30006KT P6SM BKN015
FM241300 32008KT P6SM SCT008



MET'MAP, la Météo Aéronautique d'un coup d'oeil ! - Copyright ORBIFLY Décembre 2007 - Disclaimer

ORBIFLY MET'MAP TEAM :

Programmation & Développement : Alexandra Zaïnal
Sur une idée originale de : Baudouin d'Aumeries
Assistance à la programmation : Marc-Olivier Méhu
Soutien technique & logistique : Manuel Goepfert

Contact : metmap@orbifly.com




SOURCES & CREDITS :

   NOAA       Earth
Advisory